createdAt,value
2018-08-12T00:00:53.088Z,61.15
2018-08-12T00:03:20.836Z,60.10
2018-08-12T00:05:48.579Z,59.98
2018-08-12T00:08:16.258Z,59.48
2018-08-12T00:10:44.050Z,59.28
2018-08-12T00:13:11.751Z,59.31
2018-08-12T00:15:39.517Z,60.52
2018-08-12T00:18:07.205Z,60.87
2018-08-12T00:20:34.923Z,61.61
2018-08-12T00:23:02.741Z,60.87
2018-08-12T00:25:30.534Z,59.97
2018-08-12T00:27:58.257Z,60.41
2018-08-12T00:30:25.965Z,60.21
2018-08-12T00:32:53.641Z,59.94
2018-08-12T00:35:21.337Z,60.40
2018-08-12T00:37:49.032Z,60.56
2018-08-12T00:40:17.393Z,60.07
2018-08-12T00:42:45.649Z,60.40
2018-08-12T00:45:15.761Z,59.90
2018-08-12T00:47:43.865Z,60.23
2018-08-12T00:50:12.521Z,60.30
2018-08-12T00:52:40.230Z,61.24
2018-08-12T00:55:10.437Z,59.88
2018-08-12T00:57:38.230Z,60.27
2018-08-12T01:00:12.218Z,60.61
2018-08-12T01:02:39.992Z,60.72
2018-08-12T01:05:09.533Z,60.95
2018-08-12T01:07:37.264Z,61.39
2018-08-12T01:10:05.889Z,60.08
2018-08-12T01:12:33.813Z,59.91
2018-08-12T01:15:01.654Z,61.19
2018-08-12T01:17:29.370Z,60.53
2018-08-12T01:19:57.046Z,60.83
2018-08-12T01:22:24.754Z,61.07
2018-08-12T01:24:52.441Z,61.31
2018-08-12T01:27:20.150Z,61.64
2018-08-12T01:29:47.920Z,61.95
2018-08-12T01:32:15.621Z,62.12
2018-08-12T01:34:43.301Z,61.24
2018-08-12T01:37:11.035Z,62.09
2018-08-12T01:39:38.801Z,61.89
2018-08-12T01:42:07.033Z,62.44
2018-08-12T01:44:34.732Z,62.68
2018-08-12T01:47:02.446Z,61.92
2018-08-12T01:49:30.182Z,61.87
2018-08-12T01:51:57.949Z,63.10
2018-08-12T01:54:25.644Z,62.57
2018-08-12T01:56:53.345Z,62.41
2018-08-12T01:59:21.037Z,62.35
2018-08-12T02:01:48.708Z,62.69
2018-08-12T02:04:16.433Z,63.07
2018-08-12T02:06:44.094Z,63.74
2018-08-12T02:09:11.756Z,63.14
2018-08-12T02:11:39.686Z,63.20
2018-08-12T02:14:07.762Z,63.24
2018-08-12T02:16:35.856Z,63.64
2018-08-12T02:19:03.572Z,62.96
2018-08-12T02:21:31.237Z,63.69
2018-08-12T02:23:58.916Z,63.78
2018-08-12T02:26:26.590Z,63.42
2018-08-12T02:28:54.401Z,64.29
2018-08-12T02:31:22.071Z,64.56
2018-08-12T02:33:49.734Z,64.02
2018-08-12T02:36:17.451Z,64.26
2018-08-12T02:38:45.096Z,64.38
2018-08-12T02:41:12.810Z,63.91
2018-08-12T02:43:40.627Z,64.78
2018-08-12T02:46:08.342Z,64.49
2018-08-12T02:48:36.047Z,64.87
2018-08-12T02:51:03.748Z,65.08
2018-08-12T02:53:31.474Z,64.35
2018-08-12T02:55:59.168Z,63.83
2018-08-12T02:58:26.898Z,64.29
2018-08-12T03:00:54.711Z,63.63
2018-08-12T03:03:22.424Z,63.87
2018-08-12T03:05:50.127Z,63.44
2018-08-12T03:08:17.886Z,63.28
2018-08-12T03:10:45.562Z,64.03
2018-08-12T03:13:13.306Z,65.71
2018-08-12T03:15:40.981Z,65.62
2018-08-12T03:18:08.729Z,65.00
2018-08-12T03:20:36.431Z,65.92
2018-08-12T03:23:04.200Z,65.15
2018-08-12T03:25:31.899Z,65.05
2018-08-12T03:27:59.619Z,64.77
2018-08-12T03:30:27.358Z,65.19
2018-08-12T03:32:55.045Z,64.85
2018-08-12T03:35:22.758Z,64.21
2018-08-12T03:37:50.480Z,64.61
2018-08-12T03:40:18.141Z,63.89
2018-08-12T03:42:45.829Z,63.59
2018-08-12T03:45:13.524Z,64.03
2018-08-12T03:47:41.476Z,61.24
2018-08-12T03:50:10.241Z,54.79
2018-08-12T03:52:38.318Z,51.23
2018-08-12T03:55:06.589Z,50.40
2018-08-12T03:57:34.278Z,49.37
2018-08-12T04:00:02.016Z,45.87
2018-08-12T04:02:29.685Z,42.99
2018-08-12T04:04:57.358Z,40.21
2018-08-12T04:07:25.109Z,39.89
2018-08-12T04:09:52.749Z,36.75
2018-08-12T04:12:20.481Z,35.31
2018-08-12T04:14:48.170Z,35.93
2018-08-12T04:17:15.878Z,33.59
2018-08-12T04:19:43.589Z,31.36
2018-08-12T04:22:11.296Z,29.93
2018-08-12T04:24:38.957Z,32.90
2018-08-12T04:27:06.708Z,38.19
2018-08-12T04:29:34.465Z,37.70
2018-08-12T04:32:02.198Z,37.84
2018-08-12T04:34:29.881Z,38.48
2018-08-12T04:36:57.562Z,38.56
2018-08-12T04:39:25.300Z,36.92
2018-08-12T04:41:52.990Z,34.81
2018-08-12T04:44:20.733Z,33.73
2018-08-12T04:46:48.422Z,30.68
2018-08-12T04:49:16.103Z,29.43
2018-08-12T04:51:43.828Z,30.50
2018-08-12T04:54:11.489Z,31.60
2018-08-12T04:56:39.184Z,31.47
2018-08-12T04:59:06.945Z,30.06
2018-08-12T05:01:34.727Z,29.71
2018-08-12T05:04:02.445Z,28.66
2018-08-12T05:06:30.142Z,28.38
2018-08-12T05:08:57.865Z,28.37
2018-08-12T05:11:25.670Z,28.01
2018-08-12T05:13:53.395Z,30.24
2018-08-12T05:16:21.073Z,33.17
2018-08-12T05:18:48.801Z,32.61
2018-08-12T05:21:16.505Z,30.00
2018-08-12T05:23:44.203Z,28.63
2018-08-12T05:26:11.845Z,30.34
2018-08-12T05:28:39.550Z,29.53
2018-08-12T05:31:07.221Z,27.87
2018-08-12T05:33:35.044Z,28.51
2018-08-12T05:36:02.820Z,27.05
2018-08-12T05:38:30.479Z,28.20
2018-08-12T05:40:58.165Z,27.56
2018-08-12T05:43:25.841Z,29.94
2018-08-12T05:45:53.544Z,30.10
2018-08-12T05:48:21.313Z,28.84
2018-08-12T05:50:48.999Z,29.20
2018-08-12T05:53:16.700Z,31.14
2018-08-12T05:55:44.438Z,29.97
2018-08-12T05:58:12.159Z,29.62
2018-08-12T06:00:39.998Z,30.65
2018-08-12T06:03:07.700Z,31.20
2018-08-12T06:05:35.539Z,30.01
2018-08-12T06:08:03.392Z,28.53
2018-08-12T06:10:31.151Z,30.75
2018-08-12T06:12:58.891Z,29.82
2018-08-12T06:15:26.634Z,27.83
2018-08-12T06:17:54.332Z,29.21
2018-08-12T06:20:22.184Z,28.90
2018-08-12T06:22:49.965Z,31.46
2018-08-12T06:25:17.734Z,30.28
2018-08-12T06:27:45.430Z,30.27
2018-08-12T06:30:14.187Z,31.57
2018-08-12T06:35:15.286Z,31.01
2018-08-12T06:37:43.291Z,31.02
2018-08-12T06:40:12.305Z,32.13
2018-08-12T06:42:41.602Z,33.87
2018-08-12T06:45:11.836Z,33.33
2018-08-12T06:47:39.666Z,34.06
2018-08-12T06:50:08.614Z,33.99
2018-08-12T06:52:36.753Z,36.39
2018-08-12T06:55:05.213Z,34.02
2018-08-12T06:57:32.917Z,33.74
2018-08-12T07:00:00.578Z,33.11
2018-08-12T07:02:28.317Z,34.69
2018-08-12T07:04:55.998Z,36.23
2018-08-12T07:07:23.999Z,35.36
2018-08-12T07:09:51.695Z,34.21
2018-08-12T07:12:19.409Z,32.55
2018-08-12T07:14:47.170Z,31.70
2018-08-12T07:17:14.846Z,33.68
2018-08-12T07:19:42.503Z,32.57
2018-08-12T07:22:10.181Z,32.69
2018-08-12T07:24:37.986Z,33.94
2018-08-12T07:27:05.852Z,34.24
2018-08-12T07:29:33.532Z,36.78
2018-08-12T07:32:01.257Z,35.20
2018-08-12T07:34:28.984Z,36.68
2018-08-12T07:36:56.685Z,37.50
2018-08-12T07:39:24.342Z,38.32
2018-08-12T07:41:52.093Z,37.88
2018-08-12T07:44:19.853Z,36.79
2018-08-12T07:46:47.525Z,36.16
2018-08-12T07:49:15.189Z,35.32
2018-08-12T07:51:42.937Z,35.57
2018-08-12T07:54:10.610Z,36.53
2018-08-12T07:56:38.269Z,38.44
2018-08-12T07:59:05.989Z,37.04
2018-08-12T08:01:33.639Z,36.11
2018-08-12T08:04:01.326Z,36.59
2018-08-12T08:06:28.976Z,34.06
2018-08-12T08:08:56.733Z,33.40
2018-08-12T08:11:24.425Z,35.28
2018-08-12T08:13:52.109Z,35.61
2018-08-12T08:16:19.893Z,36.26
2018-08-12T08:18:47.671Z,36.09
2018-08-12T08:21:15.465Z,35.98
2018-08-12T08:23:43.206Z,34.30
2018-08-12T08:26:10.905Z,36.19
2018-08-12T08:28:38.609Z,34.66
2018-08-12T08:31:06.479Z,34.26
2018-08-12T08:33:34.208Z,36.03
2018-08-12T08:36:01.982Z,33.24
2018-08-12T08:38:29.725Z,31.54
2018-08-12T08:40:57.441Z,32.80
2018-08-12T08:43:25.185Z,31.24
2018-08-12T08:45:52.910Z,29.73
2018-08-12T08:48:20.632Z,27.57
2018-08-12T08:50:48.459Z,28.73
2018-08-12T08:53:16.694Z,28.75
2018-08-12T08:55:44.433Z,28.68
2018-08-12T08:58:12.166Z,28.19
2018-08-12T09:00:39.907Z,28.81
2018-08-12T09:03:07.607Z,29.27
2018-08-12T09:05:35.369Z,29.53
2018-08-12T09:08:03.235Z,29.10
2018-08-12T09:10:31.169Z,29.57
2018-08-12T09:12:58.973Z,31.23
2018-08-12T09:15:26.655Z,29.33
2018-08-12T09:17:54.330Z,29.04
2018-08-12T09:20:22.080Z,28.98
2018-08-12T09:22:49.772Z,27.72
2018-08-12T09:25:17.708Z,27.59
2018-08-12T09:27:45.547Z,27.52
2018-08-12T09:30:20.791Z,28.74
2018-08-12T09:32:48.804Z,27.88
2018-08-12T09:35:16.677Z,28.41
2018-08-12T09:37:44.377Z,29.02
2018-08-12T09:40:15.594Z,29.03
2018-08-12T09:42:44.034Z,29.89
2018-08-12T09:45:13.949Z,29.95
2018-08-12T09:47:41.710Z,29.97
2018-08-12T09:50:10.255Z,25.59
2018-08-12T09:52:38.397Z,23.29
2018-08-12T09:55:06.638Z,24.35
2018-08-12T09:57:34.915Z,24.22
2018-08-12T10:00:02.821Z,22.67
2018-08-12T10:02:30.549Z,24.23
2018-08-12T10:04:58.309Z,24.98
2018-08-12T10:07:26.105Z,25.18
2018-08-12T10:09:53.774Z,26.00
2018-08-12T10:12:21.467Z,24.38
2018-08-12T10:14:49.133Z,24.81
2018-08-12T10:17:16.926Z,24.22
2018-08-12T10:19:44.714Z,23.12
2018-08-12T10:22:12.526Z,24.01
2018-08-12T10:24:40.354Z,23.80
2018-08-12T10:27:08.125Z,22.33
2018-08-12T10:29:35.825Z,21.97
2018-08-12T10:32:03.662Z,23.26
2018-08-12T10:34:31.408Z,21.06
2018-08-12T10:36:59.154Z,23.22
2018-08-12T10:39:27.194Z,21.87
2018-08-12T10:41:54.866Z,22.45
2018-08-12T10:44:22.564Z,21.94
2018-08-12T10:46:50.271Z,21.08
2018-08-12T10:49:18.018Z,20.52
2018-08-12T10:51:45.786Z,19.63
2018-08-12T10:54:13.640Z,19.34
2018-08-12T10:56:41.507Z,19.10
2018-08-12T10:59:09.312Z,19.62
2018-08-12T11:01:37.208Z,20.04
2018-08-12T11:04:05.036Z,19.97
2018-08-12T11:06:32.846Z,23.25
2018-08-12T11:09:00.987Z,21.47
2018-08-12T11:11:28.849Z,20.63
2018-08-12T11:13:56.593Z,20.21
2018-08-12T11:16:24.750Z,21.51
2018-08-12T11:18:52.515Z,21.97
2018-08-12T11:21:20.211Z,21.34
2018-08-12T11:23:47.921Z,21.54
2018-08-12T11:26:15.606Z,22.55
2018-08-12T11:28:43.329Z,22.10
2018-08-12T11:31:11.020Z,25.23
2018-08-12T11:33:39.566Z,24.67
2018-08-12T11:36:07.263Z,24.54
2018-08-12T11:38:34.993Z,24.24
2018-08-12T11:41:02.820Z,23.56
2018-08-12T11:43:30.642Z,24.39
2018-08-12T11:45:58.391Z,25.80
2018-08-12T11:48:26.071Z,24.78
2018-08-12T11:50:53.772Z,24.72
2018-08-12T11:53:21.495Z,23.93
2018-08-12T11:55:49.274Z,22.77
2018-08-12T11:58:16.965Z,22.24
2018-08-12T12:00:44.837Z,23.38
2018-08-12T12:03:12.571Z,20.74
2018-08-12T12:05:40.402Z,21.33
2018-08-12T12:08:08.184Z,20.64
2018-08-12T12:10:35.934Z,20.87
2018-08-12T12:13:03.710Z,23.56
2018-08-12T12:15:31.423Z,23.23
2018-08-12T12:17:59.310Z,23.66
2018-08-12T12:20:27.076Z,22.53
2018-08-12T12:22:54.827Z,22.99
2018-08-12T12:25:22.547Z,22.03
2018-08-12T12:27:50.379Z,21.98
2018-08-12T12:30:19.756Z,21.73
2018-08-12T12:32:48.342Z,21.63
2018-08-12T12:35:16.238Z,23.92
2018-08-12T12:37:43.996Z,24.17
2018-08-12T12:40:13.788Z,23.23
2018-08-12T12:42:41.874Z,23.80
2018-08-12T12:45:11.060Z,22.25
2018-08-12T12:47:39.455Z,22.41
2018-08-12T12:50:09.816Z,22.02
2018-08-12T12:52:37.997Z,22.14
2018-08-12T12:55:06.029Z,21.79
2018-08-12T12:57:33.833Z,21.41
2018-08-12T13:00:01.947Z,22.43
2018-08-12T13:02:29.687Z,22.65
2018-08-12T13:04:57.672Z,21.72
2018-08-12T13:07:25.446Z,21.09
2018-08-12T13:09:53.122Z,22.39
2018-08-12T13:12:20.906Z,21.85
2018-08-12T13:14:48.625Z,21.64
2018-08-12T13:17:16.433Z,20.99
2018-08-12T13:19:44.210Z,21.98
2018-08-12T13:22:11.913Z,21.06
2018-08-12T13:24:39.680Z,20.30
2018-08-12T13:27:07.467Z,21.06
2018-08-12T13:29:35.216Z,20.60
2018-08-12T13:32:03.102Z,20.80
2018-08-12T13:34:30.783Z,20.45
2018-08-12T13:36:58.467Z,18.99
2018-08-12T13:39:26.428Z,18.87
2018-08-12T13:41:54.125Z,18.40
2018-08-12T13:44:21.798Z,19.76
2018-08-12T13:46:49.860Z,18.98
2018-08-12T13:49:17.700Z,20.43
2018-08-12T13:51:45.370Z,21.49
2018-08-12T13:54:13.168Z,20.28
2018-08-12T13:56:40.948Z,20.47
2018-08-12T13:59:08.748Z,19.72
2018-08-12T14:01:36.652Z,22.03
2018-08-12T14:04:04.427Z,22.77
2018-08-12T14:06:32.152Z,22.38
2018-08-12T14:08:59.917Z,22.57
2018-08-12T14:11:27.641Z,22.76
2018-08-12T14:13:55.484Z,22.80
2018-08-12T14:16:23.245Z,21.82
2018-08-12T14:18:51.009Z,20.97
2018-08-12T14:21:18.800Z,22.23
2018-08-12T14:23:46.474Z,21.52
2018-08-12T14:26:14.222Z,20.57
2018-08-12T14:28:41.930Z,20.60
2018-08-12T14:31:09.670Z,20.73
2018-08-12T14:33:37.384Z,22.13
2018-08-12T14:36:05.094Z,21.85
2018-08-12T14:38:32.789Z,21.04
2018-08-12T14:41:00.502Z,21.56
2018-08-12T14:43:28.247Z,20.96
2018-08-12T14:45:55.933Z,22.08
2018-08-12T14:48:23.625Z,20.70
2018-08-12T14:50:51.378Z,21.71
2018-08-12T14:53:19.085Z,22.27
2018-08-12T14:55:46.810Z,22.04
2018-08-12T14:58:14.527Z,21.61
2018-08-12T15:00:42.211Z,21.52
2018-08-12T15:03:10.058Z,21.17
2018-08-12T15:05:37.920Z,21.00
2018-08-12T15:08:05.638Z,20.78
2018-08-12T15:10:33.414Z,21.09
2018-08-12T15:13:01.106Z,21.15
2018-08-12T15:15:28.785Z,21.10
2018-08-12T15:17:56.500Z,21.21
2018-08-12T15:20:24.258Z,20.73
2018-08-12T15:22:52.195Z,21.68
2018-08-12T15:25:20.638Z,22.76
2018-08-12T15:27:48.546Z,22.60
2018-08-12T15:30:16.312Z,22.52
2018-08-12T15:32:44.035Z,23.31
2018-08-12T15:35:11.818Z,24.25
2018-08-12T15:37:39.548Z,23.87
2018-08-12T15:40:09.673Z,23.28
2018-08-12T15:42:37.361Z,24.75
2018-08-12T15:45:07.518Z,25.49
2018-08-12T15:47:35.312Z,27.14
2018-08-12T15:50:03.216Z,27.91
2018-08-12T15:52:30.925Z,26.77
2018-08-12T15:54:58.672Z,26.55
2018-08-12T15:57:26.394Z,27.20
2018-08-12T15:59:54.464Z,27.80
2018-08-12T16:02:22.310Z,27.34
2018-08-12T16:04:50.023Z,28.82
2018-08-12T16:07:17.729Z,28.96
2018-08-12T16:09:45.571Z,29.48
2018-08-12T16:12:13.305Z,30.46
2018-08-12T16:14:41.022Z,31.21
2018-08-12T16:17:08.855Z,32.50
2018-08-12T16:19:36.547Z,31.82
2018-08-12T16:22:04.361Z,32.32
2018-08-12T16:24:32.178Z,31.86
2018-08-12T16:26:59.844Z,33.06
2018-08-12T16:29:27.527Z,34.02
2018-08-12T16:31:55.219Z,34.25
2018-08-12T16:34:22.903Z,35.20
2018-08-12T16:36:50.605Z,34.56
2018-08-12T16:39:18.353Z,34.90
2018-08-12T16:41:46.083Z,35.21
2018-08-12T16:44:14.732Z,35.12
2018-08-12T16:46:42.471Z,34.46
2018-08-12T16:49:10.230Z,34.97
2018-08-12T16:51:37.981Z,34.71
2018-08-12T16:54:06.220Z,33.73
2018-08-12T16:56:33.972Z,35.24
2018-08-12T16:59:01.653Z,36.03
2018-08-12T17:01:29.378Z,36.01
2018-08-12T17:03:57.198Z,35.41
2018-08-12T17:06:24.941Z,37.53
2018-08-12T17:08:52.695Z,37.28
2018-08-12T17:11:20.464Z,36.79
2018-08-12T17:13:48.294Z,39.24
2018-08-12T17:16:15.994Z,39.49
2018-08-12T17:18:43.696Z,38.99
2018-08-12T17:21:11.422Z,40.18
2018-08-12T17:23:39.100Z,40.31
2018-08-12T17:26:06.986Z,40.25
2018-08-12T17:28:34.630Z,41.64
2018-08-12T17:31:02.358Z,41.45
2018-08-12T17:33:30.157Z,41.98
2018-08-12T17:35:57.879Z,41.75
2018-08-12T17:38:25.665Z,42.20
2018-08-12T17:40:53.433Z,43.14
2018-08-12T17:43:21.148Z,42.51
2018-08-12T17:45:48.894Z,43.76
2018-08-12T17:48:16.790Z,43.39
2018-08-12T17:50:44.715Z,43.43
2018-08-12T17:53:12.556Z,42.96
2018-08-12T17:55:40.260Z,42.70
2018-08-12T17:58:08.079Z,43.10
2018-08-12T18:00:35.828Z,43.21
2018-08-12T18:03:03.679Z,42.85
2018-08-12T18:05:31.398Z,43.22
2018-08-12T18:07:59.090Z,42.17
2018-08-12T18:10:26.778Z,41.47
2018-08-12T18:12:54.425Z,41.41
2018-08-12T18:15:22.118Z,41.23
2018-08-12T18:17:49.790Z,41.05
2018-08-12T18:20:17.530Z,40.21
2018-08-12T18:22:45.213Z,40.63
2018-08-12T18:25:12.905Z,40.30
2018-08-12T18:27:41.395Z,40.42
2018-08-12T18:30:12.645Z,40.84
2018-08-12T18:32:40.585Z,40.82
2018-08-12T18:35:09.202Z,41.05
2018-08-12T18:37:36.916Z,40.76
2018-08-12T18:40:05.769Z,41.66
2018-08-12T18:42:33.524Z,41.31
2018-08-12T18:45:01.274Z,41.69
2018-08-12T18:47:28.985Z,41.39
2018-08-12T18:49:56.778Z,41.88
2018-08-12T18:52:24.528Z,42.56
2018-08-12T18:54:52.304Z,42.21
2018-08-12T18:57:20.001Z,42.70
2018-08-12T18:59:47.649Z,43.02
2018-08-12T19:02:15.393Z,42.65
2018-08-12T19:04:43.121Z,42.79
2018-08-12T19:07:10.941Z,42.76
2018-08-12T19:09:38.666Z,43.90
2018-08-12T19:12:06.427Z,43.83
2018-08-12T19:14:34.151Z,43.50
2018-08-12T19:17:01.890Z,44.17
2018-08-12T19:19:29.562Z,44.71
2018-08-12T19:21:57.380Z,45.18
2018-08-12T19:24:25.135Z,45.44
2018-08-12T19:26:52.886Z,45.40
2018-08-12T19:29:20.647Z,45.58
2018-08-12T19:31:48.349Z,45.78
2018-08-12T19:34:16.169Z,46.34
2018-08-12T19:36:43.870Z,46.09
2018-08-12T19:39:11.893Z,46.98
2018-08-12T19:41:39.861Z,46.51
2018-08-12T19:44:08.039Z,45.92
2018-08-12T19:46:36.059Z,45.74
2018-08-12T19:49:03.712Z,45.27
2018-08-12T19:51:31.402Z,45.58
2018-08-12T19:53:59.710Z,45.80
2018-08-12T19:56:27.450Z,45.64
2018-08-12T19:58:55.139Z,44.81
2018-08-12T20:01:22.901Z,45.38
2018-08-12T20:03:50.646Z,45.55
2018-08-12T20:06:18.616Z,44.56
2018-08-12T20:08:46.377Z,44.64
2018-08-12T20:11:14.081Z,44.45
2018-08-12T20:13:41.838Z,43.70
2018-08-12T20:16:09.776Z,44.52
2018-08-12T20:18:37.589Z,44.18
2018-08-12T20:21:05.308Z,43.84
2018-08-12T20:23:33.009Z,44.68
2018-08-12T20:26:00.793Z,45.78
2018-08-12T20:28:28.661Z,46.87
2018-08-12T20:30:56.363Z,46.37
2018-08-12T20:33:24.086Z,48.06
2018-08-12T20:35:51.850Z,48.31
2018-08-12T20:38:19.616Z,47.25
2018-08-12T20:40:47.384Z,47.99
2018-08-12T20:43:15.128Z,48.94
2018-08-12T20:45:42.898Z,49.14
2018-08-12T20:48:10.602Z,50.43
2018-08-12T20:50:38.403Z,50.09
2018-08-12T20:53:06.150Z,50.20
2018-08-12T20:55:33.885Z,50.95
2018-08-12T20:58:01.578Z,51.21
2018-08-12T21:00:29.246Z,51.40
2018-08-12T21:02:56.982Z,51.87
2018-08-12T21:05:24.681Z,51.74
2018-08-12T21:07:52.381Z,51.35
2018-08-12T21:10:20.102Z,52.05
2018-08-12T21:12:47.821Z,51.74
2018-08-12T21:15:15.546Z,52.49
2018-08-12T21:17:43.212Z,52.32
2018-08-12T21:20:10.994Z,53.19
2018-08-12T21:22:39.061Z,53.79
2018-08-12T21:25:06.946Z,54.80
2018-08-12T21:27:34.816Z,54.45
2018-08-12T21:30:02.654Z,54.02
2018-08-12T21:32:30.346Z,53.86
2018-08-12T21:34:58.014Z,54.56
2018-08-12T21:37:25.665Z,53.91
2018-08-12T21:39:53.341Z,54.26
2018-08-12T21:42:21.095Z,54.58
2018-08-12T21:44:48.814Z,55.23
2018-08-12T21:47:16.490Z,55.38
2018-08-12T21:49:44.155Z,55.53
2018-08-12T21:52:11.882Z,55.86
2018-08-12T21:54:39.577Z,56.32
2018-08-12T21:57:07.229Z,56.21
2018-08-12T21:59:34.887Z,57.40
2018-08-12T22:02:02.757Z,60.01
2018-08-12T22:04:30.486Z,60.33
2018-08-12T22:06:58.251Z,61.22
2018-08-12T22:09:25.902Z,61.32
2018-08-12T22:11:53.566Z,61.12
2018-08-12T22:14:21.254Z,62.20
2018-08-12T22:16:48.969Z,61.50
2018-08-12T22:19:16.641Z,61.55
2018-08-12T22:21:44.410Z,61.22
2018-08-12T22:24:12.115Z,61.52
2018-08-12T22:26:39.831Z,61.83
2018-08-12T22:29:07.500Z,62.24
2018-08-12T22:31:35.281Z,61.99
2018-08-12T22:34:03.069Z,62.27
2018-08-12T22:36:30.817Z,62.83
2018-08-12T22:38:58.539Z,61.99
2018-08-12T22:41:26.214Z,61.89
2018-08-12T22:43:53.911Z,60.92
2018-08-12T22:46:21.634Z,61.30
2018-08-12T22:48:49.285Z,60.83
2018-08-12T22:51:16.985Z,60.53
2018-08-12T22:53:44.660Z,59.69
2018-08-12T22:56:12.455Z,59.45
2018-08-12T22:58:40.156Z,58.36
2018-08-12T23:01:08.771Z,58.63
2018-08-12T23:03:36.467Z,59.21
2018-08-12T23:06:04.202Z,59.36
2018-08-12T23:08:31.905Z,60.28
2018-08-12T23:10:59.573Z,59.85
2018-08-12T23:13:27.279Z,60.17
2018-08-12T23:16:16.485Z,60.38
2018-08-12T23:18:44.197Z,59.73
2018-08-12T23:21:12.945Z,60.31
2018-08-12T23:23:42.213Z,59.97
2018-08-12T23:26:11.337Z,60.51
2018-08-12T23:28:39.044Z,60.46
2018-08-12T23:31:06.934Z,60.67
2018-08-12T23:33:34.617Z,60.49
2018-08-12T23:36:02.287Z,60.10
2018-08-12T23:38:29.960Z,60.19
2018-08-12T23:40:57.625Z,60.23
2018-08-12T23:43:25.793Z,60.37
2018-08-12T23:45:53.477Z,60.94
2018-08-12T23:48:21.173Z,60.66
2018-08-12T23:50:48.881Z,60.55
2018-08-12T23:53:16.558Z,60.93
2018-08-12T23:55:44.262Z,60.06
2018-08-12T23:58:12.054Z,59.90
